sensor_id;sensor_type;location;lat;lon;timestamp;P1;durP1;ratioP1;P2;durP2;ratioP2
21550;SDS011;10936;49.836;7.078;2022-12-07T06:00:25;1.20;;;1.00;;
21550;SDS011;10936;49.836;7.078;2022-12-07T06:02:51;1.43;;;1.30;;
21550;SDS011;10936;49.836;7.078;2022-12-07T06:05:16;1.30;;;1.20;;
21550;SDS011;10936;49.836;7.078;2022-12-07T06:07:42;1.57;;;1.20;;
21550;SDS011;10936;49.836;7.078;2022-12-07T06:10:07;1.67;;;1.30;;
21550;SDS011;10936;49.836;7.078;2022-12-07T06:12:33;1.50;;;1.20;;
21550;SDS011;10936;49.836;7.078;2022-12-07T06:14:59;1.43;;;1.00;;
21550;SDS011;10936;49.836;7.078;2022-12-07T06:17:24;1.60;;;1.10;;
21550;SDS011;10936;49.836;7.078;2022-12-07T06:19:50;1.27;;;1.03;;
21550;SDS011;10936;49.836;7.078;2022-12-07T06:22:16;2.20;;;1.33;;
21550;SDS011;10936;49.836;7.078;2022-12-07T06:24:42;1.50;;;1.13;;
21550;SDS011;10936;49.836;7.078;2022-12-07T06:27:08;1.63;;;1.20;;
21550;SDS011;10936;49.836;7.078;2022-12-07T06:29:35;1.60;;;1.30;;
21550;SDS011;10936;49.836;7.078;2022-12-07T06:32:00;1.43;;;1.10;;
21550;SDS011;10936;49.836;7.078;2022-12-07T06:34:26;2.80;;;1.33;;
21550;SDS011;10936;49.836;7.078;2022-12-07T06:36:52;2.00;;;1.40;;
21550;SDS011;10936;49.836;7.078;2022-12-07T06:39:21;1.53;;;1.30;;
21550;SDS011;10936;49.836;7.078;2022-12-07T06:41:49;1.77;;;1.47;;
21550;SDS011;10936;49.836;7.078;2022-12-07T06:44:16;1.43;;;1.10;;
21550;SDS011;10936;49.836;7.078;2022-12-07T06:46:42;1.30;;;1.13;;
21550;SDS011;10936;49.836;7.078;2022-12-07T06:49:07;1.40;;;1.20;;
21550;SDS011;10936;49.836;7.078;2022-12-07T06:51:33;1.30;;;1.20;;
21550;SDS011;10936;49.836;7.078;2022-12-07T06:54:05;1.67;;;1.40;;
21550;SDS011;10936;49.836;7.078;2022-12-07T06:56:32;1.37;;;1.17;;
21550;SDS011;10936;49.836;7.078;2022-12-07T06:58:57;1.70;;;1.20;;
21550;SDS011;10936;49.836;7.078;2022-12-07T07:01:23;1.87;;;1.40;;
21550;SDS011;10936;49.836;7.078;2022-12-07T07:03:49;1.30;;;1.20;;
21550;SDS011;10936;49.836;7.078;2022-12-07T07:06:14;1.30;;;1.20;;
21550;SDS011;10936;49.836;7.078;2022-12-07T07:08:40;1.47;;;1.20;;
21550;SDS011;10936;49.836;7.078;2022-12-07T07:11:06;1.83;;;1.10;;
21550;SDS011;10936;49.836;7.078;2022-12-07T07:13:33;1.23;;;1.10;;
21550;SDS011;10936;49.836;7.078;2022-12-07T07:15:59;1.37;;;1.13;;
21550;SDS011;10936;49.836;7.078;2022-12-07T07:18:25;1.80;;;1.23;;
21550;SDS011;10936;49.836;7.078;2022-12-07T07:20:51;1.37;;;1.17;;
21550;SDS011;10936;49.836;7.078;2022-12-07T07:23:17;1.10;;;1.03;;
21550;SDS011;10936;49.836;7.078;2022-12-07T07:25:43;1.30;;;1.10;;
21550;SDS011;10936;49.836;7.078;2022-12-07T07:28:09;2.97;;;1.33;;
21550;SDS011;10936;49.836;7.078;2022-12-07T07:30:35;1.33;;;1.10;;
21550;SDS011;10936;49.836;7.078;2022-12-07T07:33:01;2.03;;;1.20;;
21550;SDS011;10936;49.836;7.078;2022-12-07T07:35:28;1.20;;;1.10;;
21550;SDS011;10936;49.836;7.078;2022-12-07T07:37:56;1.50;;;1.40;;
21550;SDS011;10936;49.836;7.078;2022-12-07T07:40:21;2.37;;;1.20;;
21550;SDS011;10936;49.836;7.078;2022-12-07T07:42:48;1.50;;;1.20;;
21550;SDS011;10936;49.836;7.078;2022-12-07T07:45:14;1.37;;;1.20;;
21550;SDS011;10936;49.836;7.078;2022-12-07T07:47:40;1.27;;;1.10;;
21550;SDS011;10936;49.836;7.078;2022-12-07T07:50:06;1.30;;;1.10;;
21550;SDS011;10936;49.836;7.078;2022-12-07T07:52:32;2.83;;;1.30;;
21550;SDS011;10936;49.836;7.078;2022-12-07T07:54:57;2.03;;;1.30;;
21550;SDS011;10936;49.836;7.078;2022-12-07T07:57:23;1.50;;;1.30;;
21550;SDS011;10936;49.836;7.078;2022-12-07T07:59:48;2.03;;;1.03;;
21550;SDS011;10936;49.836;7.078;2022-12-07T08:02:15;1.20;;;1.10;;
21550;SDS011;10936;49.836;7.078;2022-12-07T08:04:42;1.30;;;1.20;;
21550;SDS011;10936;49.836;7.078;2022-12-07T08:07:08;1.60;;;1.30;;
21550;SDS011;10936;49.836;7.078;2022-12-07T08:09:34;1.23;;;1.13;;
21550;SDS011;10936;49.836;7.078;2022-12-07T08:12:00;1.60;;;1.30;;
21550;SDS011;10936;49.836;7.078;2022-12-07T08:14:25;2.30;;;1.20;;
21550;SDS011;10936;49.836;7.078;2022-12-07T08:16:52;3.03;;;1.20;;
21550;SDS011;10936;49.836;7.078;2022-12-07T08:19:18;3.27;;;1.20;;
21550;SDS011;10936;49.836;7.078;2022-12-07T08:21:44;2.83;;;1.50;;
21550;SDS011;10936;49.836;7.078;2022-12-07T08:24:09;2.97;;;1.40;;
21550;SDS011;10936;49.836;7.078;2022-12-07T08:26:35;2.03;;;1.40;;
21550;SDS011;10936;49.836;7.078;2022-12-07T08:29:00;3.40;;;1.30;;
21550;SDS011;10936;49.836;7.078;2022-12-07T08:31:26;4.13;;;1.30;;
21550;SDS011;10936;49.836;7.078;2022-12-07T08:33:52;3.27;;;1.60;;
21550;SDS011;10936;49.836;7.078;2022-12-07T08:36:18;3.77;;;1.50;;
21550;SDS011;10936;49.836;7.078;2022-12-07T08:38:44;3.00;;;1.60;;
21550;SDS011;10936;49.836;7.078;2022-12-07T08:41:09;1.73;;;1.03;;
21550;SDS011;10936;49.836;7.078;2022-12-07T08:43:35;2.73;;;1.60;;
21550;SDS011;10936;49.836;7.078;2022-12-07T08:48:39;2.87;;;1.30;;
21550;SDS011;10936;49.836;7.078;2022-12-07T08:51:09;2.10;;;1.30;;
21550;SDS011;10936;49.836;7.078;2022-12-07T08:53:37;1.90;;;1.40;;
21550;SDS011;10936;49.836;7.078;2022-12-07T08:56:04;2.30;;;1.50;;
21550;SDS011;10936;49.836;7.078;2022-12-07T08:58:32;2.20;;;1.37;;
21550;SDS011;10936;49.836;7.078;2022-12-07T09:00:59;2.10;;;1.27;;
21550;SDS011;10936;49.836;7.078;2022-12-07T09:03:24;3.63;;;1.60;;
21550;SDS011;10936;49.836;7.078;2022-12-07T09:05:50;2.03;;;1.40;;
21550;SDS011;10936;49.836;7.078;2022-12-07T09:08:17;2.63;;;1.40;;
21550;SDS011;10936;49.836;7.078;2022-12-07T09:10:42;2.33;;;1.23;;
21550;SDS011;10936;49.836;7.078;2022-12-07T09:13:08;2.57;;;1.50;;
21550;SDS011;10936;49.836;7.078;2022-12-07T09:15:34;3.83;;;1.60;;
21550;SDS011;10936;49.836;7.078;2022-12-07T09:17:59;3.73;;;1.50;;
21550;SDS011;10936;49.836;7.078;2022-12-07T09:20:25;1.60;;;1.27;;
21550;SDS011;10936;49.836;7.078;2022-12-07T09:22:50;3.00;;;1.30;;
21550;SDS011;10936;49.836;7.078;2022-12-07T09:25:16;1.43;;;1.17;;
21550;SDS011;10936;49.836;7.078;2022-12-07T09:27:41;1.77;;;1.23;;
21550;SDS011;10936;49.836;7.078;2022-12-07T09:30:07;2.63;;;1.40;;
21550;SDS011;10936;49.836;7.078;2022-12-07T09:32:33;3.10;;;1.53;;
21550;SDS011;10936;49.836;7.078;2022-12-07T09:34:58;1.83;;;1.40;;
21550;SDS011;10936;49.836;7.078;2022-12-07T09:37:24;2.33;;;1.20;;
21550;SDS011;10936;49.836;7.078;2022-12-07T09:39:49;2.40;;;1.47;;
21550;SDS011;10936;49.836;7.078;2022-12-07T09:45:01;2.40;;;1.50;;
21550;SDS011;10936;49.836;7.078;2022-12-07T09:47:29;1.80;;;1.20;;
21550;SDS011;10936;49.836;7.078;2022-12-07T09:49:57;2.67;;;1.30;;
21550;SDS011;10936;49.836;7.078;2022-12-07T09:52:29;2.10;;;1.20;;
21550;SDS011;10936;49.836;7.078;2022-12-07T09:54:55;2.57;;;1.53;;
21550;SDS011;10936;49.836;7.078;2022-12-07T09:57:25;2.53;;;1.50;;
21550;SDS011;10936;49.836;7.078;2022-12-07T09:59:56;2.53;;;1.10;;
21550;SDS011;10936;49.836;7.078;2022-12-07T10:02:39;2.87;;;1.17;;
21550;SDS011;10936;49.836;7.078;2022-12-07T10:05:32;2.33;;;1.50;;
21550;SDS011;10936;49.836;7.078;2022-12-07T10:08:02;2.33;;;1.30;;
21550;SDS011;10936;49.836;7.078;2022-12-07T10:10:32;2.03;;;1.43;;
21550;SDS011;10936;49.836;7.078;2022-12-07T10:13:01;3.00;;;1.40;;
21550;SDS011;10936;49.836;7.078;2022-12-07T10:21:03;2.07;;;1.13;;
21550;SDS011;10936;49.836;7.078;2022-12-07T10:23:42;1.27;;;1.17;;
21550;SDS011;10936;49.836;7.078;2022-12-07T10:26:26;3.53;;;1.30;;
21550;SDS011;10936;49.836;7.078;2022-12-07T10:31:46;1.90;;;1.10;;
21550;SDS011;10936;49.836;7.078;2022-12-07T10:36:49;1.70;;;1.20;;
21550;SDS011;10936;49.836;7.078;2022-12-07T10:39:17;1.77;;;1.10;;
21550;SDS011;10936;49.836;7.078;2022-12-07T10:42:01;4.40;;;1.90;;
21550;SDS011;10936;49.836;7.078;2022-12-07T10:44:29;2.00;;;1.10;;
21550;SDS011;10936;49.836;7.078;2022-12-07T10:50:12;1.60;;;1.50;;
21550;SDS011;10936;49.836;7.078;2022-12-07T10:58:04;1.97;;;1.40;;
21550;SDS011;10936;49.836;7.078;2022-12-07T11:00:52;2.83;;;1.30;;
21550;SDS011;10936;49.836;7.078;2022-12-07T11:08:44;2.20;;;1.40;;
21550;SDS011;10936;49.836;7.078;2022-12-07T11:11:46;2.87;;;1.43;;
21550;SDS011;10936;49.836;7.078;2022-12-07T11:16:56;1.63;;;1.30;;
21550;SDS011;10936;49.836;7.078;2022-12-07T11:24:56;1.80;;;1.20;;
21550;SDS011;10936;49.836;7.078;2022-12-07T11:30:10;1.10;;;0.97;;
21550;SDS011;10936;49.836;7.078;2022-12-07T11:37:51;1.87;;;1.30;;
21550;SDS011;10936;49.836;7.078;2022-12-07T11:42:58;1.30;;;1.00;;
21550;SDS011;10936;49.836;7.078;2022-12-07T11:45:30;1.60;;;1.00;;
21550;SDS011;10936;49.836;7.078;2022-12-07T11:50:48;2.33;;;1.27;;
21550;SDS011;10936;49.836;7.078;2022-12-07T11:53:19;2.50;;;1.20;;
21550;SDS011;10936;49.836;7.078;2022-12-07T11:56:31;2.83;;;1.10;;
21550;SDS011;10936;49.836;7.078;2022-12-07T11:58:45;1.87;;;1.20;;
21550;SDS011;10936;49.836;7.078;2022-12-07T12:06:34;1.33;;;1.13;;
21550;SDS011;10936;49.836;7.078;2022-12-07T12:22:15;1.40;;;1.20;;
21550;SDS011;10936;49.836;7.078;2022-12-07T12:24:43;2.00;;;1.00;;
21550;SDS011;10936;49.836;7.078;2022-12-07T12:29:54;1.70;;;1.20;;
21550;SDS011;10936;49.836;7.078;2022-12-07T12:32:24;1.93;;;1.50;;
21550;SDS011;10936;49.836;7.078;2022-12-07T12:35:03;1.27;;;1.00;;
21550;SDS011;10936;49.836;7.078;2022-12-07T12:37:54;1.83;;;1.30;;
21550;SDS011;10936;49.836;7.078;2022-12-07T12:42:52;1.03;;;0.93;;
21550;SDS011;10936;49.836;7.078;2022-12-07T12:45:27;1.10;;;1.00;;
21550;SDS011;10936;49.836;7.078;2022-12-07T12:48:30;1.20;;;1.10;;
21550;SDS011;10936;49.836;7.078;2022-12-07T12:51:35;1.50;;;1.10;;
21550;SDS011;10936;49.836;7.078;2022-12-07T12:54:03;2.90;;;1.13;;
21550;SDS011;10936;49.836;7.078;2022-12-07T12:56:40;2.43;;;1.27;;
21550;SDS011;10936;49.836;7.078;2022-12-07T12:59:19;1.60;;;1.10;;
21550;SDS011;10936;49.836;7.078;2022-12-07T13:01:49;1.90;;;0.97;;
21550;SDS011;10936;49.836;7.078;2022-12-07T13:04:23;1.40;;;1.20;;
21550;SDS011;10936;49.836;7.078;2022-12-07T13:06:52;1.77;;;1.10;;
21550;SDS011;10936;49.836;7.078;2022-12-07T13:09:19;1.00;;;0.90;;
21550;SDS011;10936;49.836;7.078;2022-12-07T13:11:48;1.67;;;1.10;;
21550;SDS011;10936;49.836;7.078;2022-12-07T13:17:02;2.33;;;1.10;;
21550;SDS011;10936;49.836;7.078;2022-12-07T13:25:17;1.83;;;1.00;;
21550;SDS011;10936;49.836;7.078;2022-12-07T13:27:47;2.30;;;1.10;;
21550;SDS011;10936;49.836;7.078;2022-12-07T13:30:21;1.00;;;0.90;;
21550;SDS011;10936;49.836;7.078;2022-12-07T13:32:54;1.30;;;0.93;;
21550;SDS011;10936;49.836;7.078;2022-12-07T13:35:32;1.60;;;1.20;;
21550;SDS011;10936;49.836;7.078;2022-12-07T13:38:16;1.10;;;1.00;;
21550;SDS011;10936;49.836;7.078;2022-12-07T13:41:11;1.57;;;0.90;;
21550;SDS011;10936;49.836;7.078;2022-12-07T13:43:49;1.33;;;1.00;;
21550;SDS011;10936;49.836;7.078;2022-12-07T13:46:17;1.83;;;1.10;;
21550;SDS011;10936;49.836;7.078;2022-12-07T13:48:50;1.27;;;0.90;;
21550;SDS011;10936;49.836;7.078;2022-12-07T13:53:53;1.87;;;1.20;;
21550;SDS011;10936;49.836;7.078;2022-12-07T13:56:28;1.73;;;1.30;;
21550;SDS011;10936;49.836;7.078;2022-12-07T13:58:58;1.70;;;1.23;;
21550;SDS011;10936;49.836;7.078;2022-12-07T14:01:24;1.63;;;1.00;;
21550;SDS011;10936;49.836;7.078;2022-12-07T14:03:50;1.70;;;1.30;;
21550;SDS011;10936;49.836;7.078;2022-12-07T14:06:21;4.10;;;1.30;;
21550;SDS011;10936;49.836;7.078;2022-12-07T14:11:42;2.57;;;1.43;;
21550;SDS011;10936;49.836;7.078;2022-12-07T14:14:45;1.67;;;1.10;;
21550;SDS011;10936;49.836;7.078;2022-12-07T14:17:02;2.50;;;1.13;;
21550;SDS011;10936;49.836;7.078;2022-12-07T14:22:16;1.43;;;1.20;;
21550;SDS011;10936;49.836;7.078;2022-12-07T14:25:01;1.53;;;1.20;;
21550;SDS011;10936;49.836;7.078;2022-12-07T14:30:21;3.17;;;1.50;;
21550;SDS011;10936;49.836;7.078;2022-12-07T14:32:57;2.43;;;1.30;;
21550;SDS011;10936;49.836;7.078;2022-12-07T14:35:25;3.03;;;1.30;;
21550;SDS011;10936;49.836;7.078;2022-12-07T14:37:51;1.97;;;1.30;;
21550;SDS011;10936;49.836;7.078;2022-12-07T14:40:18;2.60;;;1.37;;
21550;SDS011;10936;49.836;7.078;2022-12-07T14:42:50;4.57;;;1.50;;
21550;SDS011;10936;49.836;7.078;2022-12-07T14:45:20;2.83;;;1.50;;
21550;SDS011;10936;49.836;7.078;2022-12-07T14:47:47;2.17;;;1.40;;
21550;SDS011;10936;49.836;7.078;2022-12-07T14:50:14;3.03;;;1.50;;
21550;SDS011;10936;49.836;7.078;2022-12-07T14:52:40;3.17;;;1.47;;
21550;SDS011;10936;49.836;7.078;2022-12-07T14:55:16;2.30;;;1.70;;
21550;SDS011;10936;49.836;7.078;2022-12-07T14:57:55;2.40;;;1.40;;
21550;SDS011;10936;49.836;7.078;2022-12-07T15:00:22;3.43;;;1.60;;
21550;SDS011;10936;49.836;7.078;2022-12-07T15:02:49;2.67;;;1.40;;
21550;SDS011;10936;49.836;7.078;2022-12-07T15:05:15;3.33;;;2.03;;
21550;SDS011;10936;49.836;7.078;2022-12-07T15:07:41;3.30;;;1.70;;
21550;SDS011;10936;49.836;7.078;2022-12-07T15:10:13;2.83;;;1.80;;
21550;SDS011;10936;49.836;7.078;2022-12-07T15:12:44;6.43;;;1.70;;
21550;SDS011;10936;49.836;7.078;2022-12-07T15:15:10;4.30;;;1.57;;
21550;SDS011;10936;49.836;7.078;2022-12-07T15:17:36;4.97;;;1.80;;
21550;SDS011;10936;49.836;7.078;2022-12-07T15:20:02;3.57;;;1.60;;
21550;SDS011;10936;49.836;7.078;2022-12-07T15:22:28;3.90;;;1.47;;
21550;SDS011;10936;49.836;7.078;2022-12-07T15:24:56;4.97;;;1.80;;
21550;SDS011;10936;49.836;7.078;2022-12-07T15:27:24;2.57;;;1.40;;
21550;SDS011;10936;49.836;7.078;2022-12-07T15:29:49;4.80;;;2.03;;
21550;SDS011;10936;49.836;7.078;2022-12-07T15:32:15;3.37;;;1.80;;
21550;SDS011;10936;49.836;7.078;2022-12-07T15:34:41;4.00;;;1.70;;
21550;SDS011;10936;49.836;7.078;2022-12-07T15:37:06;3.13;;;1.60;;
21550;SDS011;10936;49.836;7.078;2022-12-07T15:39:32;3.83;;;1.60;;
21550;SDS011;10936;49.836;7.078;2022-12-07T15:41:58;5.07;;;1.60;;
21550;SDS011;10936;49.836;7.078;2022-12-07T15:44:24;2.80;;;2.00;;
21550;SDS011;10936;49.836;7.078;2022-12-07T15:47:08;3.60;;;1.60;;
21550;SDS011;10936;49.836;7.078;2022-12-07T15:49:33;4.10;;;1.87;;
21550;SDS011;10936;49.836;7.078;2022-12-07T15:51:59;4.20;;;1.87;;
21550;SDS011;10936;49.836;7.078;2022-12-07T15:54:26;3.37;;;1.70;;
21550;SDS011;10936;49.836;7.078;2022-12-07T15:56:53;3.53;;;1.83;;
21550;SDS011;10936;49.836;7.078;2022-12-07T15:59:19;3.53;;;1.70;;
21550;SDS011;10936;49.836;7.078;2022-12-07T16:01:45;6.63;;;2.03;;
21550;SDS011;10936;49.836;7.078;2022-12-07T16:04:10;5.20;;;1.67;;
21550;SDS011;10936;49.836;7.078;2022-12-07T16:06:36;4.83;;;2.13;;
21550;SDS011;10936;49.836;7.078;2022-12-07T16:09:02;3.97;;;1.80;;
21550;SDS011;10936;49.836;7.078;2022-12-07T16:11:28;4.43;;;1.70;;
21550;SDS011;10936;49.836;7.078;2022-12-07T16:13:54;3.10;;;1.80;;
21550;SDS011;10936;49.836;7.078;2022-12-07T16:16:20;4.30;;;1.67;;
21550;SDS011;10936;49.836;7.078;2022-12-07T16:18:47;3.33;;;1.80;;
21550;SDS011;10936;49.836;7.078;2022-12-07T16:21:13;4.03;;;1.73;;
21550;SDS011;10936;49.836;7.078;2022-12-07T16:23:39;2.57;;;1.87;;
21550;SDS011;10936;49.836;7.078;2022-12-07T16:26:06;3.53;;;1.90;;
21550;SDS011;10936;49.836;7.078;2022-12-07T16:28:33;4.88;;;1.50;;
21550;SDS011;10936;49.836;7.078;2022-12-07T16:31:00;2.60;;;1.57;;
21550;SDS011;10936;49.836;7.078;2022-12-07T16:33:27;3.47;;;1.80;;
21550;SDS011;10936;49.836;7.078;2022-12-07T16:35:53;4.90;;;2.07;;
21550;SDS011;10936;49.836;7.078;2022-12-07T16:38:18;3.33;;;1.90;;
21550;SDS011;10936;49.836;7.078;2022-12-07T16:40:44;3.50;;;1.70;;
21550;SDS011;10936;49.836;7.078;2022-12-07T16:43:11;2.30;;;1.40;;
21550;SDS011;10936;49.836;7.078;2022-12-07T16:45:38;2.57;;;1.60;;
21550;SDS011;10936;49.836;7.078;2022-12-07T16:48:03;4.33;;;2.10;;
21550;SDS011;10936;49.836;7.078;2022-12-07T16:50:29;2.17;;;1.60;;
21550;SDS011;10936;49.836;7.078;2022-12-07T16:52:55;2.90;;;1.77;;
21550;SDS011;10936;49.836;7.078;2022-12-07T16:55:21;4.93;;;2.10;;
21550;SDS011;10936;49.836;7.078;2022-12-07T16:57:46;4.33;;;1.90;;
21550;SDS011;10936;49.836;7.078;2022-12-07T17:00:12;3.07;;;1.83;;
21550;SDS011;10936;49.836;7.078;2022-12-07T17:02:37;4.23;;;1.90;;
21550;SDS011;10936;49.836;7.078;2022-12-07T17:05:03;2.37;;;1.70;;
21550;SDS011;10936;49.836;7.078;2022-12-07T17:07:29;3.73;;;2.00;;
21550;SDS011;10936;49.836;7.078;2022-12-07T17:09:54;4.93;;;1.80;;
21550;SDS011;10936;49.836;7.078;2022-12-07T17:12:20;3.37;;;1.83;;
21550;SDS011;10936;49.836;7.078;2022-12-07T17:14:45;3.83;;;1.77;;
21550;SDS011;10936;49.836;7.078;2022-12-07T17:17:29;4.47;;;1.80;;
21550;SDS011;10936;49.836;7.078;2022-12-07T17:19:55;2.47;;;1.50;;
21550;SDS011;10936;49.836;7.078;2022-12-07T17:22:21;3.87;;;1.97;;
21550;SDS011;10936;49.836;7.078;2022-12-07T17:24:46;1.80;;;1.50;;
21550;SDS011;10936;49.836;7.078;2022-12-07T17:27:12;5.27;;;1.77;;
21550;SDS011;10936;49.836;7.078;2022-12-07T17:29:37;2.80;;;1.97;;
21550;SDS011;10936;49.836;7.078;2022-12-07T17:32:03;3.70;;;1.80;;
21550;SDS011;10936;49.836;7.078;2022-12-07T17:34:29;3.50;;;2.07;;
21550;SDS011;10936;49.836;7.078;2022-12-07T17:36:55;4.00;;;2.37;;
21550;SDS011;10936;49.836;7.078;2022-12-07T17:39:20;2.53;;;1.60;;
21550;SDS011;10936;49.836;7.078;2022-12-07T17:41:46;2.63;;;1.80;;
21550;SDS011;10936;49.836;7.078;2022-12-07T17:44:30;3.03;;;1.60;;
21550;SDS011;10936;49.836;7.078;2022-12-07T17:46:56;3.10;;;2.00;;
21550;SDS011;10936;49.836;7.078;2022-12-07T17:49:23;2.87;;;1.63;;
21550;SDS011;10936;49.836;7.078;2022-12-07T17:51:49;5.80;;;2.33;;
21550;SDS011;10936;49.836;7.078;2022-12-07T17:54:33;4.73;;;1.57;;
21550;SDS011;10936;49.836;7.078;2022-12-07T17:56:59;2.93;;;1.63;;
21550;SDS011;10936;49.836;7.078;2022-12-07T17:59:24;2.97;;;1.63;;
21550;SDS011;10936;49.836;7.078;2022-12-07T18:01:50;5.37;;;1.83;;
21550;SDS011;10936;49.836;7.078;2022-12-07T18:04:16;4.23;;;1.97;;
21550;SDS011;10936;49.836;7.078;2022-12-07T18:06:41;1.97;;;1.60;;
21550;SDS011;10936;49.836;7.078;2022-12-07T18:09:07;4.30;;;1.70;;
21550;SDS011;10936;49.836;7.078;2022-12-07T18:11:33;3.13;;;1.80;;
21550;SDS011;10936;49.836;7.078;2022-12-07T18:13:59;3.10;;;1.70;;
21550;SDS011;10936;49.836;7.078;2022-12-07T18:16:26;2.40;;;1.60;;
21550;SDS011;10936;49.836;7.078;2022-12-07T18:18:53;3.90;;;1.87;;
21550;SDS011;10936;49.836;7.078;2022-12-07T18:21:23;7.90;;;2.20;;
21550;SDS011;10936;49.836;7.078;2022-12-07T18:23:51;4.73;;;1.93;;
21550;SDS011;10936;49.836;7.078;2022-12-07T18:26:20;4.43;;;1.80;;
21550;SDS011;10936;49.836;7.078;2022-12-07T18:28:46;4.93;;;1.93;;
21550;SDS011;10936;49.836;7.078;2022-12-07T18:31:13;3.70;;;1.90;;
21550;SDS011;10936;49.836;7.078;2022-12-07T18:33:39;2.97;;;1.80;;
21550;SDS011;10936;49.836;7.078;2022-12-07T18:36:05;2.20;;;1.77;;
21550;SDS011;10936;49.836;7.078;2022-12-07T18:38:31;3.37;;;1.93;;
21550;SDS011;10936;49.836;7.078;2022-12-07T18:40:57;5.30;;;1.97;;
21550;SDS011;10936;49.836;7.078;2022-12-07T18:43:23;2.90;;;1.87;;
21550;SDS011;10936;49.836;7.078;2022-12-07T18:45:52;2.77;;;2.13;;
21550;SDS011;10936;49.836;7.078;2022-12-07T18:48:18;3.40;;;1.97;;
21550;SDS011;10936;49.836;7.078;2022-12-07T18:50:46;4.90;;;1.67;;
21550;SDS011;10936;49.836;7.078;2022-12-07T18:53:12;3.03;;;1.87;;
21550;SDS011;10936;49.836;7.078;2022-12-07T18:55:38;3.47;;;1.90;;
21550;SDS011;10936;49.836;7.078;2022-12-07T18:58:04;3.43;;;1.50;;
21550;SDS011;10936;49.836;7.078;2022-12-07T19:00:31;4.03;;;2.17;;
21550;SDS011;10936;49.836;7.078;2022-12-07T19:02:58;6.37;;;2.13;;
21550;SDS011;10936;49.836;7.078;2022-12-07T19:05:25;4.07;;;1.87;;
21550;SDS011;10936;49.836;7.078;2022-12-07T19:07:51;3.33;;;2.20;;
21550;SDS011;10936;49.836;7.078;2022-12-07T19:10:17;2.43;;;1.63;;
21550;SDS011;10936;49.836;7.078;2022-12-07T19:12:43;5.33;;;2.23;;
21550;SDS011;10936;49.836;7.078;2022-12-07T19:15:10;3.93;;;1.57;;
21550;SDS011;10936;49.836;7.078;2022-12-07T19:17:37;3.10;;;1.80;;
21550;SDS011;10936;49.836;7.078;2022-12-07T19:20:03;2.47;;;1.77;;
21550;SDS011;10936;49.836;7.078;2022-12-07T19:22:30;2.90;;;1.70;;
21550;SDS011;10936;49.836;7.078;2022-12-07T19:24:56;2.43;;;1.70;;
21550;SDS011;10936;49.836;7.078;2022-12-07T19:27:22;3.43;;;1.80;;
21550;SDS011;10936;49.836;7.078;2022-12-07T19:29:48;4.03;;;1.80;;
21550;SDS011;10936;49.836;7.078;2022-12-07T19:32:14;2.93;;;1.70;;
21550;SDS011;10936;49.836;7.078;2022-12-07T19:34:42;2.17;;;1.50;;
21550;SDS011;10936;49.836;7.078;2022-12-07T19:37:09;1.83;;;1.50;;
21550;SDS011;10936;49.836;7.078;2022-12-07T19:39:36;2.60;;;1.97;;
21550;SDS011;10936;49.836;7.078;2022-12-07T19:42:02;3.37;;;1.60;;
21550;SDS011;10936;49.836;7.078;2022-12-07T19:44:29;3.10;;;1.70;;
21550;SDS011;10936;49.836;7.078;2022-12-07T19:46:56;3.77;;;2.13;;
21550;SDS011;10936;49.836;7.078;2022-12-07T19:49:24;2.60;;;1.60;;
21550;SDS011;10936;49.836;7.078;2022-12-07T19:51:52;3.50;;;2.23;;
21550;SDS011;10936;49.836;7.078;2022-12-07T19:54:20;3.33;;;1.90;;
21550;SDS011;10936;49.836;7.078;2022-12-07T19:56:48;3.70;;;1.77;;
21550;SDS011;10936;49.836;7.078;2022-12-07T19:59:14;4.13;;;2.00;;
21550;SDS011;10936;49.836;7.078;2022-12-07T20:01:41;2.63;;;1.60;;
21550;SDS011;10936;49.836;7.078;2022-12-07T20:04:08;1.93;;;1.40;;
21550;SDS011;10936;49.836;7.078;2022-12-07T20:06:36;2.70;;;1.83;;
21550;SDS011;10936;49.836;7.078;2022-12-07T20:09:02;2.43;;;1.83;;
21550;SDS011;10936;49.836;7.078;2022-12-07T20:11:29;4.33;;;2.13;;
21550;SDS011;10936;49.836;7.078;2022-12-07T20:14:13;2.53;;;1.50;;
21550;SDS011;10936;49.836;7.078;2022-12-07T20:16:39;2.90;;;1.80;;
21550;SDS011;10936;49.836;7.078;2022-12-07T20:19:06;2.87;;;1.60;;
21550;SDS011;10936;49.836;7.078;2022-12-07T20:21:32;3.13;;;1.60;;
21550;SDS011;10936;49.836;7.078;2022-12-07T20:23:59;2.90;;;1.70;;
21550;SDS011;10936;49.836;7.078;2022-12-07T20:26:25;2.57;;;1.63;;
21550;SDS011;10936;49.836;7.078;2022-12-07T20:28:51;3.37;;;1.80;;
21550;SDS011;10936;49.836;7.078;2022-12-07T20:31:16;2.30;;;1.67;;
21550;SDS011;10936;49.836;7.078;2022-12-07T20:33:43;3.50;;;2.00;;
21550;SDS011;10936;49.836;7.078;2022-12-07T20:36:15;2.27;;;1.60;;
21550;SDS011;10936;49.836;7.078;2022-12-07T20:38:42;2.87;;;2.00;;
21550;SDS011;10936;49.836;7.078;2022-12-07T20:41:08;2.50;;;2.00;;
21550;SDS011;10936;49.836;7.078;2022-12-07T20:43:56;1.73;;;1.40;;
21550;SDS011;10936;49.836;7.078;2022-12-07T20:46:21;3.33;;;1.80;;
21550;SDS011;10936;49.836;7.078;2022-12-07T20:48:47;2.07;;;1.70;;
21550;SDS011;10936;49.836;7.078;2022-12-07T20:51:12;2.10;;;1.43;;
21550;SDS011;10936;49.836;7.078;2022-12-07T20:53:38;1.80;;;1.43;;
21550;SDS011;10936;49.836;7.078;2022-12-07T20:56:04;2.87;;;1.63;;
21550;SDS011;10936;49.836;7.078;2022-12-07T20:58:30;2.83;;;2.03;;
21550;SDS011;10936;49.836;7.078;2022-12-07T21:01:01;3.20;;;1.73;;
21550;SDS011;10936;49.836;7.078;2022-12-07T21:03:27;2.23;;;1.70;;
21550;SDS011;10936;49.836;7.078;2022-12-07T21:05:53;2.00;;;1.47;;
21550;SDS011;10936;49.836;7.078;2022-12-07T21:08:19;2.93;;;1.80;;
21550;SDS011;10936;49.836;7.078;2022-12-07T21:10:44;2.43;;;1.33;;
21550;SDS011;10936;49.836;7.078;2022-12-07T21:13:10;1.97;;;1.50;;
21550;SDS011;10936;49.836;7.078;2022-12-07T21:15:39;2.83;;;1.53;;
21550;SDS011;10936;49.836;7.078;2022-12-07T21:18:04;2.10;;;1.47;;
21550;SDS011;10936;49.836;7.078;2022-12-07T21:20:31;2.20;;;1.70;;
21550;SDS011;10936;49.836;7.078;2022-12-07T21:22:57;2.60;;;1.90;;
21550;SDS011;10936;49.836;7.078;2022-12-07T21:25:22;3.13;;;1.70;;
21550;SDS011;10936;49.836;7.078;2022-12-07T21:27:48;2.87;;;1.80;;
21550;SDS011;10936;49.836;7.078;2022-12-07T21:30:13;2.83;;;1.80;;
21550;SDS011;10936;49.836;7.078;2022-12-07T21:32:39;3.43;;;1.57;;
21550;SDS011;10936;49.836;7.078;2022-12-07T21:35:05;1.63;;;1.37;;
21550;SDS011;10936;49.836;7.078;2022-12-07T21:37:30;3.17;;;1.90;;
21550;SDS011;10936;49.836;7.078;2022-12-07T21:39:56;2.03;;;1.50;;
21550;SDS011;10936;49.836;7.078;2022-12-07T21:42:21;2.93;;;1.80;;
21550;SDS011;10936;49.836;7.078;2022-12-07T21:44:47;1.97;;;1.53;;
21550;SDS011;10936;49.836;7.078;2022-12-07T21:47:12;3.83;;;1.60;;
21550;SDS011;10936;49.836;7.078;2022-12-07T21:49:38;1.83;;;1.60;;
21550;SDS011;10936;49.836;7.078;2022-12-07T21:52:04;2.47;;;1.80;;
21550;SDS011;10936;49.836;7.078;2022-12-07T21:54:30;3.40;;;1.50;;
21550;SDS011;10936;49.836;7.078;2022-12-07T21:56:56;2.47;;;1.60;;
21550;SDS011;10936;49.836;7.078;2022-12-07T21:59:21;2.00;;;1.50;;
21550;SDS011;10936;49.836;7.078;2022-12-07T22:01:47;1.50;;;1.40;;
21550;SDS011;10936;49.836;7.078;2022-12-07T22:04:17;2.27;;;1.77;;
21550;SDS011;10936;49.836;7.078;2022-12-07T22:06:45;2.63;;;1.80;;
21550;SDS011;10936;49.836;7.078;2022-12-07T22:09:12;2.77;;;1.60;;
21550;SDS011;10936;49.836;7.078;2022-12-07T22:11:38;3.73;;;2.20;;
21550;SDS011;10936;49.836;7.078;2022-12-07T22:14:05;2.23;;;1.40;;
21550;SDS011;10936;49.836;7.078;2022-12-07T22:16:50;2.00;;;1.50;;
21550;SDS011;10936;49.836;7.078;2022-12-07T22:19:16;4.43;;;1.80;;
21550;SDS011;10936;49.836;7.078;2022-12-07T22:21:42;1.90;;;1.47;;
21550;SDS011;10936;49.836;7.078;2022-12-07T22:24:08;1.67;;;1.57;;
21550;SDS011;10936;49.836;7.078;2022-12-07T22:26:34;2.10;;;1.63;;
21550;SDS011;10936;49.836;7.078;2022-12-07T22:29:00;2.40;;;1.60;;
